Portada
METAR-TAF:

METAR-TAF

Aeropuertos :

Tri-Township Airport

Savanna, Illinois, Estados Unidos

latitud: 42-02-45N, longitud: 090-06-28W, altitud: 188 m

Observación

El informe se hizo hace 28 minutos, a las 18:56 UTC
Viento 7 kt del oeste
Temperatura 31°C
Humedad 55%
Presión 1022 hPa
Visibilidad: 16.1 km
Nubes dispersas a una altura de 3700 ft
Nubes dispersas a una altura de 4800 ft
Cielo nuboso a una altura de 6000 ft

METAR: KSFY 191856Z AUTO 28007KT 10SM SCT037 SCT048 BKN060 31/21 A3018 RMK AO2

Hora: 14:24 (19:24 UTC)


TAF: falta

Observaciones y pronósticos meteorológicos de más de 4000 aeropuertos (mensajes METAR y TAF).

Los puntos amarillos y rojos representan las estaciones disponibles.

Ponga el ratón en el punto deseado para ver el nombre de la estación.

Haga clic para ver las observaciones y los pronósticos meteorológicos.

Para cambiar el mapa : haga clic en los botones verdes con una cruz de color negro para hacer un zoom, en el botón verde con un guión para alejar o en las flechas verdes para mapas adyacentes.


METAR-TAF: